sensor_id;sensor_type;location;lat;lon;timestamp;P1;durP1;ratioP1;P2;durP2;ratioP2
61840;SDS011;47773;53.174;6.614;2022-08-07T00:00:31;6.68;;;4.32;;
61840;SDS011;47773;53.174;6.614;2022-08-07T00:02:57;8.73;;;4.88;;
61840;SDS011;47773;53.174;6.614;2022-08-07T00:05:23;7.07;;;4.05;;
61840;SDS011;47773;53.174;6.614;2022-08-07T00:07:50;5.97;;;4.00;;
61840;SDS011;47773;53.174;6.614;2022-08-07T00:10:16;6.63;;;4.50;;
61840;SDS011;47773;53.174;6.614;2022-08-07T00:12:42;7.43;;;4.30;;
61840;SDS011;47773;53.174;6.614;2022-08-07T00:15:08;7.13;;;4.43;;
61840;SDS011;47773;53.174;6.614;2022-08-07T00:17:34;8.05;;;3.95;;
61840;SDS011;47773;53.174;6.614;2022-08-07T00:20:00;9.38;;;4.72;;
61840;SDS011;47773;53.174;6.614;2022-08-07T00:22:26;8.13;;;4.50;;
61840;SDS011;47773;53.174;6.614;2022-08-07T00:24:52;6.75;;;4.50;;
61840;SDS011;47773;53.174;6.614;2022-08-07T00:27:17;8.18;;;4.03;;
61840;SDS011;47773;53.174;6.614;2022-08-07T00:29:43;6.25;;;4.13;;
61840;SDS011;47773;53.174;6.614;2022-08-07T00:32:09;6.63;;;4.20;;
61840;SDS011;47773;53.174;6.614;2022-08-07T00:34:36;5.88;;;4.07;;
61840;SDS011;47773;53.174;6.614;2022-08-07T00:37:02;8.40;;;4.20;;
61840;SDS011;47773;53.174;6.614;2022-08-07T00:39:28;9.88;;;4.22;;
61840;SDS011;47773;53.174;6.614;2022-08-07T00:41:54;6.22;;;4.28;;
61840;SDS011;47773;53.174;6.614;2022-08-07T00:44:21;7.47;;;4.53;;
61840;SDS011;47773;53.174;6.614;2022-08-07T00:46:48;6.88;;;4.38;;
61840;SDS011;47773;53.174;6.614;2022-08-07T00:49:14;11.25;;;4.55;;
61840;SDS011;47773;53.174;6.614;2022-08-07T00:51:40;8.23;;;4.40;;
61840;SDS011;47773;53.174;6.614;2022-08-07T00:54:06;8.80;;;4.82;;
61840;SDS011;47773;53.174;6.614;2022-08-07T00:56:32;7.53;;;4.05;;
61840;SDS011;47773;53.174;6.614;2022-08-07T00:58:58;6.47;;;4.63;;
61840;SDS011;47773;53.174;6.614;2022-08-07T01:01:25;7.10;;;4.47;;
61840;SDS011;47773;53.174;6.614;2022-08-07T01:03:51;9.90;;;4.85;;
61840;SDS011;47773;53.174;6.614;2022-08-07T01:06:17;7.70;;;4.45;;
61840;SDS011;47773;53.174;6.614;2022-08-07T01:08:43;10.35;;;4.40;;
61840;SDS011;47773;53.174;6.614;2022-08-07T01:11:10;8.45;;;4.57;;
61840;SDS011;47773;53.174;6.614;2022-08-07T01:13:37;6.90;;;4.53;;
61840;SDS011;47773;53.174;6.614;2022-08-07T01:16:03;7.65;;;4.53;;
61840;SDS011;47773;53.174;6.614;2022-08-07T01:18:30;8.73;;;4.63;;
61840;SDS011;47773;53.174;6.614;2022-08-07T01:21:15;7.55;;;4.50;;
61840;SDS011;47773;53.174;6.614;2022-08-07T01:23:44;8.18;;;4.45;;
61840;SDS011;47773;53.174;6.614;2022-08-07T01:26:12;8.45;;;4.90;;
61840;SDS011;47773;53.174;6.614;2022-08-07T01:28:40;11.23;;;4.68;;
61840;SDS011;47773;53.174;6.614;2022-08-07T01:31:07;13.35;;;4.45;;
61840;SDS011;47773;53.174;6.614;2022-08-07T01:33:33;10.20;;;4.55;;
61840;SDS011;47773;53.174;6.614;2022-08-07T01:36:00;6.75;;;4.15;;
61840;SDS011;47773;53.174;6.614;2022-08-07T01:38:28;8.35;;;4.75;;
61840;SDS011;47773;53.174;6.614;2022-08-07T01:40:56;7.55;;;4.97;;
61840;SDS011;47773;53.174;6.614;2022-08-07T01:43:24;6.30;;;4.45;;
61840;SDS011;47773;53.174;6.614;2022-08-07T01:45:52;7.32;;;4.85;;
61840;SDS011;47773;53.174;6.614;2022-08-07T01:48:18;7.53;;;4.53;;
61840;SDS011;47773;53.174;6.614;2022-08-07T01:50:45;9.57;;;4.80;;
61840;SDS011;47773;53.174;6.614;2022-08-07T01:53:14;8.13;;;5.13;;
61840;SDS011;47773;53.174;6.614;2022-08-07T01:55:44;9.90;;;5.47;;
61840;SDS011;47773;53.174;6.614;2022-08-07T01:58:15;8.63;;;5.07;;
61840;SDS011;47773;53.174;6.614;2022-08-07T02:00:43;8.63;;;5.25;;
61840;SDS011;47773;53.174;6.614;2022-08-07T02:03:14;10.10;;;4.68;;
61840;SDS011;47773;53.174;6.614;2022-08-07T02:05:54;7.63;;;4.93;;
61840;SDS011;47773;53.174;6.614;2022-08-07T02:08:23;10.75;;;5.10;;
61840;SDS011;47773;53.174;6.614;2022-08-07T02:10:51;8.80;;;4.75;;
61840;SDS011;47773;53.174;6.614;2022-08-07T02:13:21;8.48;;;5.30;;
61840;SDS011;47773;53.174;6.614;2022-08-07T02:15:49;10.40;;;5.20;;
61840;SDS011;47773;53.174;6.614;2022-08-07T02:18:17;10.68;;;4.93;;
61840;SDS011;47773;53.174;6.614;2022-08-07T02:20:44;9.32;;;4.95;;
61840;SDS011;47773;53.174;6.614;2022-08-07T02:23:13;9.98;;;5.60;;
61840;SDS011;47773;53.174;6.614;2022-08-07T02:25:40;10.00;;;5.47;;
61840;SDS011;47773;53.174;6.614;2022-08-07T02:28:07;8.07;;;4.85;;
61840;SDS011;47773;53.174;6.614;2022-08-07T02:30:34;9.32;;;5.82;;
61840;SDS011;47773;53.174;6.614;2022-08-07T02:33:01;8.50;;;5.05;;
61840;SDS011;47773;53.174;6.614;2022-08-07T02:35:27;8.25;;;5.18;;
61840;SDS011;47773;53.174;6.614;2022-08-07T02:37:55;11.27;;;5.07;;
61840;SDS011;47773;53.174;6.614;2022-08-07T02:40:22;8.18;;;4.97;;
61840;SDS011;47773;53.174;6.614;2022-08-07T02:42:48;7.82;;;4.82;;
61840;SDS011;47773;53.174;6.614;2022-08-07T02:45:16;8.88;;;4.72;;
61840;SDS011;47773;53.174;6.614;2022-08-07T02:47:43;7.28;;;4.30;;
61840;SDS011;47773;53.174;6.614;2022-08-07T02:50:09;8.35;;;5.13;;
61840;SDS011;47773;53.174;6.614;2022-08-07T02:53:10;10.48;;;4.63;;
61840;SDS011;47773;53.174;6.614;2022-08-07T02:55:30;7.40;;;4.72;;
61840;SDS011;47773;53.174;6.614;2022-08-07T02:58:03;7.55;;;4.93;;
61840;SDS011;47773;53.174;6.614;2022-08-07T03:00:35;9.05;;;5.15;;
61840;SDS011;47773;53.174;6.614;2022-08-07T03:03:03;8.10;;;4.80;;
61840;SDS011;47773;53.174;6.614;2022-08-07T03:05:31;7.78;;;4.78;;
61840;SDS011;47773;53.174;6.614;2022-08-07T03:08:00;7.65;;;5.03;;
61840;SDS011;47773;53.174;6.614;2022-08-07T03:10:28;11.65;;;4.88;;
61840;SDS011;47773;53.174;6.614;2022-08-07T03:12:55;6.75;;;4.38;;
61840;SDS011;47773;53.174;6.614;2022-08-07T03:15:21;8.15;;;5.38;;
61840;SDS011;47773;53.174;6.614;2022-08-07T03:17:47;8.95;;;4.90;;
61840;SDS011;47773;53.174;6.614;2022-08-07T03:20:13;9.65;;;5.10;;
61840;SDS011;47773;53.174;6.614;2022-08-07T03:22:40;10.82;;;5.38;;
61840;SDS011;47773;53.174;6.614;2022-08-07T03:25:07;8.63;;;4.20;;
61840;SDS011;47773;53.174;6.614;2022-08-07T03:27:33;8.13;;;4.47;;
61840;SDS011;47773;53.174;6.614;2022-08-07T03:29:59;6.80;;;4.57;;
61840;SDS011;47773;53.174;6.614;2022-08-07T03:32:26;8.20;;;4.70;;
61840;SDS011;47773;53.174;6.614;2022-08-07T03:34:58;8.10;;;4.82;;
61840;SDS011;47773;53.174;6.614;2022-08-07T03:37:26;7.85;;;5.10;;
61840;SDS011;47773;53.174;6.614;2022-08-07T03:39:55;8.13;;;4.82;;
61840;SDS011;47773;53.174;6.614;2022-08-07T03:42:22;8.32;;;4.53;;
61840;SDS011;47773;53.174;6.614;2022-08-07T03:44:48;8.05;;;4.80;;
61840;SDS011;47773;53.174;6.614;2022-08-07T03:47:14;10.07;;;5.35;;
61840;SDS011;47773;53.174;6.614;2022-08-07T03:49:43;8.40;;;4.95;;
61840;SDS011;47773;53.174;6.614;2022-08-07T03:52:10;8.75;;;4.88;;
61840;SDS011;47773;53.174;6.614;2022-08-07T03:54:36;9.80;;;5.20;;
61840;SDS011;47773;53.174;6.614;2022-08-07T03:57:02;11.75;;;5.22;;
61840;SDS011;47773;53.174;6.614;2022-08-07T03:59:29;9.25;;;5.55;;
61840;SDS011;47773;53.174;6.614;2022-08-07T04:01:56;7.60;;;4.85;;
61840;SDS011;47773;53.174;6.614;2022-08-07T04:04:22;8.48;;;5.18;;
61840;SDS011;47773;53.174;6.614;2022-08-07T04:06:48;8.55;;;5.18;;
61840;SDS011;47773;53.174;6.614;2022-08-07T04:09:14;9.55;;;5.45;;
61840;SDS011;47773;53.174;6.614;2022-08-07T04:11:40;10.15;;;4.85;;
61840;SDS011;47773;53.174;6.614;2022-08-07T04:14:08;8.63;;;5.07;;
61840;SDS011;47773;53.174;6.614;2022-08-07T04:16:34;9.68;;;5.15;;
61840;SDS011;47773;53.174;6.614;2022-08-07T04:19:01;8.65;;;4.97;;
61840;SDS011;47773;53.174;6.614;2022-08-07T04:21:27;7.55;;;4.88;;
61840;SDS011;47773;53.174;6.614;2022-08-07T04:23:53;8.70;;;5.38;;
61840;SDS011;47773;53.174;6.614;2022-08-07T04:26:19;8.68;;;5.25;;
61840;SDS011;47773;53.174;6.614;2022-08-07T04:28:45;8.55;;;5.10;;
61840;SDS011;47773;53.174;6.614;2022-08-07T04:31:11;7.68;;;4.40;;
61840;SDS011;47773;53.174;6.614;2022-08-07T04:33:37;11.55;;;5.32;;
61840;SDS011;47773;53.174;6.614;2022-08-07T04:36:03;9.52;;;5.38;;
61840;SDS011;47773;53.174;6.614;2022-08-07T04:38:32;10.30;;;5.32;;
61840;SDS011;47773;53.174;6.614;2022-08-07T04:40:59;8.43;;;5.28;;
61840;SDS011;47773;53.174;6.614;2022-08-07T04:43:27;7.72;;;4.63;;
61840;SDS011;47773;53.174;6.614;2022-08-07T04:48:38;8.40;;;4.45;;
61840;SDS011;47773;53.174;6.614;2022-08-07T04:51:29;9.70;;;5.38;;
61840;SDS011;47773;53.174;6.614;2022-08-07T05:00:06;7.72;;;4.68;;
61840;SDS011;47773;53.174;6.614;2022-08-07T05:05:19;8.65;;;4.80;;
61840;SDS011;47773;53.174;6.614;2022-08-07T05:07:52;7.75;;;4.72;;
61840;SDS011;47773;53.174;6.614;2022-08-07T05:11:40;11.73;;;5.80;;
61840;SDS011;47773;53.174;6.614;2022-08-07T05:13:38;10.25;;;5.30;;
61840;SDS011;47773;53.174;6.614;2022-08-07T05:16:11;8.52;;;5.18;;
61840;SDS011;47773;53.174;6.614;2022-08-07T05:18:40;8.98;;;4.70;;
61840;SDS011;47773;53.174;6.614;2022-08-07T05:21:15;10.27;;;5.40;;
61840;SDS011;47773;53.174;6.614;2022-08-07T05:23:50;8.02;;;5.47;;
61840;SDS011;47773;53.174;6.614;2022-08-07T05:26:22;7.68;;;4.90;;
61840;SDS011;47773;53.174;6.614;2022-08-07T05:28:50;9.68;;;5.20;;
61840;SDS011;47773;53.174;6.614;2022-08-07T05:31:19;8.45;;;5.07;;
61840;SDS011;47773;53.174;6.614;2022-08-07T05:33:47;9.95;;;4.82;;
61840;SDS011;47773;53.174;6.614;2022-08-07T05:36:15;11.38;;;5.07;;
61840;SDS011;47773;53.174;6.614;2022-08-07T05:38:42;9.07;;;4.88;;
61840;SDS011;47773;53.174;6.614;2022-08-07T05:41:09;7.20;;;4.50;;
61840;SDS011;47773;53.174;6.614;2022-08-07T05:43:36;7.93;;;4.63;;
61840;SDS011;47773;53.174;6.614;2022-08-07T05:46:04;8.95;;;4.45;;
61840;SDS011;47773;53.174;6.614;2022-08-07T05:48:30;6.63;;;4.32;;
61840;SDS011;47773;53.174;6.614;2022-08-07T05:50:56;7.38;;;4.15;;
61840;SDS011;47773;53.174;6.614;2022-08-07T05:53:25;9.20;;;4.60;;
61840;SDS011;47773;53.174;6.614;2022-08-07T05:55:51;8.13;;;3.90;;
61840;SDS011;47773;53.174;6.614;2022-08-07T05:58:19;9.63;;;4.72;;
61840;SDS011;47773;53.174;6.614;2022-08-07T06:00:48;15.00;;;4.60;;
61840;SDS011;47773;53.174;6.614;2022-08-07T06:03:15;8.35;;;4.20;;
61840;SDS011;47773;53.174;6.614;2022-08-07T06:05:45;10.80;;;4.60;;
61840;SDS011;47773;53.174;6.614;2022-08-07T06:08:13;7.82;;;4.10;;
61840;SDS011;47773;53.174;6.614;2022-08-07T06:10:40;6.93;;;4.13;;
61840;SDS011;47773;53.174;6.614;2022-08-07T06:13:06;7.38;;;4.40;;
61840;SDS011;47773;53.174;6.614;2022-08-07T06:15:36;7.93;;;4.30;;
61840;SDS011;47773;53.174;6.614;2022-08-07T06:18:04;8.75;;;3.97;;
61840;SDS011;47773;53.174;6.614;2022-08-07T06:20:30;7.63;;;3.85;;
61840;SDS011;47773;53.174;6.614;2022-08-07T06:23:00;8.20;;;3.80;;
61840;SDS011;47773;53.174;6.614;2022-08-07T06:25:28;6.07;;;3.90;;
61840;SDS011;47773;53.174;6.614;2022-08-07T06:28:01;9.20;;;3.90;;
61840;SDS011;47773;53.174;6.614;2022-08-07T06:30:30;8.43;;;4.03;;
61840;SDS011;47773;53.174;6.614;2022-08-07T06:32:57;7.13;;;3.65;;
61840;SDS011;47773;53.174;6.614;2022-08-07T06:35:22;6.30;;;4.00;;
61840;SDS011;47773;53.174;6.614;2022-08-07T06:37:48;8.90;;;3.92;;
61840;SDS011;47773;53.174;6.614;2022-08-07T06:40:14;6.45;;;4.00;;
61840;SDS011;47773;53.174;6.614;2022-08-07T06:42:40;8.93;;;4.30;;
61840;SDS011;47773;53.174;6.614;2022-08-07T06:45:11;7.45;;;3.90;;
61840;SDS011;47773;53.174;6.614;2022-08-07T06:47:39;8.07;;;4.53;;
61840;SDS011;47773;53.174;6.614;2022-08-07T06:50:05;7.45;;;4.03;;
61840;SDS011;47773;53.174;6.614;2022-08-07T06:52:33;7.25;;;3.60;;
61840;SDS011;47773;53.174;6.614;2022-08-07T06:55:00;7.22;;;3.97;;
61840;SDS011;47773;53.174;6.614;2022-08-07T06:57:33;7.80;;;3.67;;
61840;SDS011;47773;53.174;6.614;2022-08-07T07:00:01;10.30;;;3.40;;
61840;SDS011;47773;53.174;6.614;2022-08-07T07:02:27;4.50;;;3.00;;
61840;SDS011;47773;53.174;6.614;2022-08-07T07:04:54;6.15;;;3.10;;
61840;SDS011;47773;53.174;6.614;2022-08-07T07:07:20;5.53;;;2.90;;
61840;SDS011;47773;53.174;6.614;2022-08-07T07:09:49;4.88;;;3.03;;
61840;SDS011;47773;53.174;6.614;2022-08-07T07:12:22;5.18;;;2.97;;
61840;SDS011;47773;53.174;6.614;2022-08-07T07:15:20;4.10;;;2.38;;
61840;SDS011;47773;53.174;6.614;2022-08-07T07:20:32;6.32;;;2.35;;
61840;SDS011;47773;53.174;6.614;2022-08-07T07:23:01;4.38;;;2.30;;
61840;SDS011;47773;53.174;6.614;2022-08-07T07:25:28;4.65;;;2.58;;
61840;SDS011;47773;53.174;6.614;2022-08-07T07:30:23;5.88;;;1.92;;
61840;SDS011;47773;53.174;6.614;2022-08-07T07:32:52;5.80;;;1.80;;
61840;SDS011;47773;53.174;6.614;2022-08-07T07:35:21;3.38;;;1.88;;
61840;SDS011;47773;53.174;6.614;2022-08-07T07:37:48;4.63;;;2.28;;
61840;SDS011;47773;53.174;6.614;2022-08-07T07:40:16;4.40;;;2.42;;
61840;SDS011;47773;53.174;6.614;2022-08-07T07:42:44;4.47;;;2.70;;
61840;SDS011;47773;53.174;6.614;2022-08-07T07:45:12;5.63;;;2.60;;
61840;SDS011;47773;53.174;6.614;2022-08-07T07:47:40;5.75;;;2.67;;
61840;SDS011;47773;53.174;6.614;2022-08-07T07:50:08;4.47;;;2.80;;
61840;SDS011;47773;53.174;6.614;2022-08-07T07:52:37;5.40;;;2.80;;
61840;SDS011;47773;53.174;6.614;2022-08-07T07:55:03;4.90;;;2.70;;
61840;SDS011;47773;53.174;6.614;2022-08-07T07:57:31;5.38;;;3.03;;
61840;SDS011;47773;53.174;6.614;2022-08-07T07:59:59;7.03;;;3.22;;
61840;SDS011;47773;53.174;6.614;2022-08-07T08:02:26;4.57;;;3.33;;
61840;SDS011;47773;53.174;6.614;2022-08-07T08:04:54;6.72;;;3.53;;
61840;SDS011;47773;53.174;6.614;2022-08-07T08:07:21;5.45;;;3.42;;
61840;SDS011;47773;53.174;6.614;2022-08-07T08:09:48;7.78;;;3.70;;
61840;SDS011;47773;53.174;6.614;2022-08-07T08:12:17;6.10;;;3.00;;
61840;SDS011;47773;53.174;6.614;2022-08-07T08:14:43;5.07;;;2.95;;
61840;SDS011;47773;53.174;6.614;2022-08-07T08:17:09;6.68;;;3.03;;
61840;SDS011;47773;53.174;6.614;2022-08-07T08:19:36;5.40;;;3.10;;
61840;SDS011;47773;53.174;6.614;2022-08-07T08:22:03;6.22;;;3.05;;
61840;SDS011;47773;53.174;6.614;2022-08-07T08:24:48;6.00;;;3.25;;
61840;SDS011;47773;53.174;6.614;2022-08-07T08:27:36;5.03;;;2.88;;
61840;SDS011;47773;53.174;6.614;2022-08-07T08:30:06;5.50;;;2.72;;
61840;SDS011;47773;53.174;6.614;2022-08-07T08:32:40;4.97;;;2.60;;
61840;SDS011;47773;53.174;6.614;2022-08-07T08:35:12;7.75;;;3.10;;
61840;SDS011;47773;53.174;6.614;2022-08-07T08:37:42;4.95;;;2.90;;
61840;SDS011;47773;53.174;6.614;2022-08-07T08:40:21;5.38;;;2.85;;
61840;SDS011;47773;53.174;6.614;2022-08-07T08:42:53;6.22;;;2.90;;
61840;SDS011;47773;53.174;6.614;2022-08-07T08:45:43;4.75;;;2.80;;
61840;SDS011;47773;53.174;6.614;2022-08-07T08:50:59;12.60;;;3.33;;
61840;SDS011;47773;53.174;6.614;2022-08-07T08:53:33;6.32;;;2.83;;
61840;SDS011;47773;53.174;6.614;2022-08-07T08:58:50;3.88;;;2.20;;
61840;SDS011;47773;53.174;6.614;2022-08-07T09:01:24;4.22;;;2.40;;
61840;SDS011;47773;53.174;6.614;2022-08-07T09:04:06;5.05;;;2.50;;
61840;SDS011;47773;53.174;6.614;2022-08-07T09:12:26;4.53;;;2.55;;
61840;SDS011;47773;53.174;6.614;2022-08-07T09:23:59;7.10;;;2.97;;
61840;SDS011;47773;53.174;6.614;2022-08-07T09:26:32;5.23;;;2.50;;
61840;SDS011;47773;53.174;6.614;2022-08-07T09:32:16;5.10;;;2.53;;
61840;SDS011;47773;53.174;6.614;2022-08-07T09:40:11;4.88;;;2.35;;
61840;SDS011;47773;53.174;6.614;2022-08-07T09:42:55;3.95;;;2.20;;
61840;SDS011;47773;53.174;6.614;2022-08-07T09:50:41;6.15;;;2.50;;
61840;SDS011;47773;53.174;6.614;2022-08-07T09:53:31;4.93;;;2.50;;
61840;SDS011;47773;53.174;6.614;2022-08-07T10:01:45;4.60;;;2.58;;
61840;SDS011;47773;53.174;6.614;2022-08-07T10:07:39;3.33;;;2.10;;
61840;SDS011;47773;53.174;6.614;2022-08-07T10:18:44;3.30;;;2.10;;
61840;SDS011;47773;53.174;6.614;2022-08-07T10:24:39;5.78;;;1.83;;
61840;SDS011;47773;53.174;6.614;2022-08-07T10:27:30;5.53;;;2.33;;
61840;SDS011;47773;53.174;6.614;2022-08-07T10:31:04;4.45;;;2.50;;
61840;SDS011;47773;53.174;6.614;2022-08-07T10:33:18;5.35;;;2.38;;
61840;SDS011;47773;53.174;6.614;2022-08-07T10:41:30;6.10;;;2.30;;
61840;SDS011;47773;53.174;6.614;2022-08-07T10:46:58;6.55;;;2.10;;
61840;SDS011;47773;53.174;6.614;2022-08-07T10:49:34;5.68;;;2.03;;
61840;SDS011;47773;53.174;6.614;2022-08-07T10:54:55;3.58;;;1.77;;
61840;SDS011;47773;53.174;6.614;2022-08-07T11:00:11;2.38;;;1.70;;
61840;SDS011;47773;53.174;6.614;2022-08-07T11:02:45;3.45;;;1.70;;
61840;SDS011;47773;53.174;6.614;2022-08-07T11:11:06;4.35;;;1.70;;
61840;SDS011;47773;53.174;6.614;2022-08-07T11:13:35;4.68;;;2.00;;
61840;SDS011;47773;53.174;6.614;2022-08-07T11:16:26;3.33;;;2.10;;
61840;SDS011;47773;53.174;6.614;2022-08-07T11:21:45;2.92;;;1.63;;
61840;SDS011;47773;53.174;6.614;2022-08-07T11:35:14;6.50;;;2.00;;
61840;SDS011;47773;53.174;6.614;2022-08-07T11:40:50;4.22;;;1.88;;
61840;SDS011;47773;53.174;6.614;2022-08-07T11:43:31;2.05;;;1.50;;
61840;SDS011;47773;53.174;6.614;2022-08-07T11:57:11;2.90;;;1.40;;
61840;SDS011;47773;53.174;6.614;2022-08-07T12:05:04;2.22;;;1.50;;
61840;SDS011;47773;53.174;6.614;2022-08-07T12:10:28;2.15;;;1.40;;
61840;SDS011;47773;53.174;6.614;2022-08-07T12:13:02;2.53;;;1.50;;
61840;SDS011;47773;53.174;6.614;2022-08-07T12:15:38;3.60;;;1.65;;
61840;SDS011;47773;53.174;6.614;2022-08-07T12:18:21;3.42;;;1.70;;
61840;SDS011;47773;53.174;6.614;2022-08-07T12:21:11;2.58;;;1.60;;
61840;SDS011;47773;53.174;6.614;2022-08-07T12:26:33;3.38;;;1.98;;
61840;SDS011;47773;53.174;6.614;2022-08-07T12:35:05;3.75;;;1.58;;
61840;SDS011;47773;53.174;6.614;2022-08-07T12:37:34;4.07;;;1.45;;
61840;SDS011;47773;53.174;6.614;2022-08-07T12:40:04;4.60;;;1.50;;
61840;SDS011;47773;53.174;6.614;2022-08-07T12:42:33;3.80;;;1.58;;
61840;SDS011;47773;53.174;6.614;2022-08-07T12:45:02;3.42;;;1.67;;
61840;SDS011;47773;53.174;6.614;2022-08-07T12:53:32;2.38;;;1.50;;
61840;SDS011;47773;53.174;6.614;2022-08-07T12:56:09;1.95;;;1.42;;
61840;SDS011;47773;53.174;6.614;2022-08-07T12:59:00;2.83;;;1.50;;
61840;SDS011;47773;53.174;6.614;2022-08-07T13:13:35;6.10;;;1.92;;
61840;SDS011;47773;53.174;6.614;2022-08-07T13:18:58;4.53;;;2.03;;
61840;SDS011;47773;53.174;6.614;2022-08-07T13:24:22;3.60;;;2.10;;
61840;SDS011;47773;53.174;6.614;2022-08-07T13:32:31;3.90;;;2.13;;
61840;SDS011;47773;53.174;6.614;2022-08-07T13:35:06;4.95;;;2.10;;
61840;SDS011;47773;53.174;6.614;2022-08-07T13:37:57;3.33;;;2.08;;
61840;SDS011;47773;53.174;6.614;2022-08-07T13:40:48;4.93;;;1.83;;
61840;SDS011;47773;53.174;6.614;2022-08-07T13:43:31;10.38;;;2.20;;
61840;SDS011;47773;53.174;6.614;2022-08-07T13:46:05;4.70;;;1.90;;
61840;SDS011;47773;53.174;6.614;2022-08-07T13:48:32;6.63;;;2.15;;
61840;SDS011;47773;53.174;6.614;2022-08-07T13:51:01;3.78;;;1.83;;
61840;SDS011;47773;53.174;6.614;2022-08-07T13:53:28;2.72;;;1.80;;
61840;SDS011;47773;53.174;6.614;2022-08-07T13:55:57;4.00;;;1.80;;
61840;SDS011;47773;53.174;6.614;2022-08-07T13:58:23;4.20;;;1.90;;
61840;SDS011;47773;53.174;6.614;2022-08-07T14:01:12;3.97;;;1.85;;
61840;SDS011;47773;53.174;6.614;2022-08-07T14:03:40;7.80;;;1.83;;
61840;SDS011;47773;53.174;6.614;2022-08-07T14:06:08;2.75;;;2.00;;
61840;SDS011;47773;53.174;6.614;2022-08-07T14:08:38;3.05;;;1.70;;
61840;SDS011;47773;53.174;6.614;2022-08-07T14:11:08;3.53;;;2.10;;
61840;SDS011;47773;53.174;6.614;2022-08-07T14:13:39;4.45;;;2.25;;
61840;SDS011;47773;53.174;6.614;2022-08-07T14:16:12;7.22;;;2.10;;
61840;SDS011;47773;53.174;6.614;2022-08-07T14:18:43;4.22;;;2.00;;
61840;SDS011;47773;53.174;6.614;2022-08-07T14:21:12;3.25;;;1.80;;
61840;SDS011;47773;53.174;6.614;2022-08-07T14:23:45;5.07;;;1.90;;
61840;SDS011;47773;53.174;6.614;2022-08-07T14:26:29;4.72;;;2.08;;
61840;SDS011;47773;53.174;6.614;2022-08-07T14:29:02;4.55;;;2.08;;
61840;SDS011;47773;53.174;6.614;2022-08-07T14:31:34;5.55;;;2.00;;
61840;SDS011;47773;53.174;6.614;2022-08-07T14:34:02;4.50;;;2.17;;
61840;SDS011;47773;53.174;6.614;2022-08-07T14:36:30;4.82;;;1.98;;
61840;SDS011;47773;53.174;6.614;2022-08-07T14:38:59;5.22;;;1.77;;
61840;SDS011;47773;53.174;6.614;2022-08-07T14:41:29;5.10;;;1.92;;
61840;SDS011;47773;53.174;6.614;2022-08-07T14:43:57;3.45;;;1.80;;
61840;SDS011;47773;53.174;6.614;2022-08-07T14:46:28;7.22;;;1.80;;
61840;SDS011;47773;53.174;6.614;2022-08-07T14:48:56;3.78;;;1.55;;
61840;SDS011;47773;53.174;6.614;2022-08-07T14:51:27;4.82;;;1.40;;
61840;SDS011;47773;53.174;6.614;2022-08-07T14:53:55;4.05;;;1.73;;
61840;SDS011;47773;53.174;6.614;2022-08-07T14:56:25;3.60;;;1.50;;
61840;SDS011;47773;53.174;6.614;2022-08-07T14:58:55;2.78;;;1.70;;
61840;SDS011;47773;53.174;6.614;2022-08-07T15:01:26;2.58;;;1.50;;
61840;SDS011;47773;53.174;6.614;2022-08-07T15:03:58;3.28;;;1.38;;
61840;SDS011;47773;53.174;6.614;2022-08-07T15:06:26;5.47;;;1.73;;
61840;SDS011;47773;53.174;6.614;2022-08-07T15:09:00;5.60;;;1.73;;
61840;SDS011;47773;53.174;6.614;2022-08-07T15:11:38;6.05;;;2.10;;
61840;SDS011;47773;53.174;6.614;2022-08-07T15:14:06;6.20;;;1.63;;
61840;SDS011;47773;53.174;6.614;2022-08-07T15:16:43;7.25;;;1.90;;
61840;SDS011;47773;53.174;6.614;2022-08-07T15:19:18;3.75;;;1.80;;
61840;SDS011;47773;53.174;6.614;2022-08-07T15:21:48;4.40;;;1.67;;
61840;SDS011;47773;53.174;6.614;2022-08-07T15:24:24;5.20;;;1.80;;
61840;SDS011;47773;53.174;6.614;2022-08-07T15:29:30;3.97;;;2.00;;
61840;SDS011;47773;53.174;6.614;2022-08-07T15:31:59;3.55;;;1.90;;
61840;SDS011;47773;53.174;6.614;2022-08-07T15:34:37;6.43;;;2.10;;
61840;SDS011;47773;53.174;6.614;2022-08-07T15:37:10;5.40;;;1.58;;
61840;SDS011;47773;53.174;6.614;2022-08-07T15:39:39;5.35;;;1.90;;
61840;SDS011;47773;53.174;6.614;2022-08-07T15:42:09;2.83;;;2.10;;
61840;SDS011;47773;53.174;6.614;2022-08-07T15:45:12;4.88;;;2.00;;
61840;SDS011;47773;53.174;6.614;2022-08-07T15:47:49;3.50;;;1.90;;
61840;SDS011;47773;53.174;6.614;2022-08-07T15:50:29;7.20;;;2.30;;
61840;SDS011;47773;53.174;6.614;2022-08-07T15:53:03;5.93;;;2.00;;
61840;SDS011;47773;53.174;6.614;2022-08-07T15:55:32;4.97;;;2.10;;
61840;SDS011;47773;53.174;6.614;2022-08-07T15:57:58;3.88;;;2.10;;
61840;SDS011;47773;53.174;6.614;2022-08-07T16:00:29;6.20;;;2.20;;
61840;SDS011;47773;53.174;6.614;2022-08-07T16:02:58;3.60;;;2.15;;
61840;SDS011;47773;53.174;6.614;2022-08-07T16:05:27;4.60;;;1.73;;
61840;SDS011;47773;53.174;6.614;2022-08-07T16:07:55;5.57;;;2.05;;
61840;SDS011;47773;53.174;6.614;2022-08-07T16:10:27;3.30;;;1.80;;
61840;SDS011;47773;53.174;6.614;2022-08-07T16:13:09;3.47;;;1.63;;
61840;SDS011;47773;53.174;6.614;2022-08-07T16:19:02;5.65;;;1.80;;
61840;SDS011;47773;53.174;6.614;2022-08-07T16:21:59;4.43;;;1.80;;
61840;SDS011;47773;53.174;6.614;2022-08-07T16:30:08;5.43;;;1.93;;
61840;SDS011;47773;53.174;6.614;2022-08-07T16:32:43;9.02;;;2.17;;
61840;SDS011;47773;53.174;6.614;2022-08-07T16:47:10;8.32;;;2.78;;
61840;SDS011;47773;53.174;6.614;2022-08-07T16:52:41;7.00;;;2.88;;
61840;SDS011;47773;53.174;6.614;2022-08-07T16:58:21;6.00;;;2.55;;
61840;SDS011;47773;53.174;6.614;2022-08-07T17:09:12;8.95;;;4.18;;
61840;SDS011;47773;53.174;6.614;2022-08-07T17:14:22;14.40;;;3.65;;
61840;SDS011;47773;53.174;6.614;2022-08-07T17:16:59;11.73;;;3.60;;
61840;SDS011;47773;53.174;6.614;2022-08-07T17:19:41;9.10;;;3.58;;
61840;SDS011;47773;53.174;6.614;2022-08-07T17:22:18;6.10;;;3.20;;
61840;SDS011;47773;53.174;6.614;2022-08-07T17:25:02;7.90;;;3.55;;
61840;SDS011;47773;53.174;6.614;2022-08-07T17:28:27;9.32;;;3.38;;
61840;SDS011;47773;53.174;6.614;2022-08-07T17:33:31;7.93;;;3.17;;
61840;SDS011;47773;53.174;6.614;2022-08-07T17:38:45;9.93;;;3.25;;
61840;SDS011;47773;53.174;6.614;2022-08-07T17:42:04;9.05;;;3.35;;
61840;SDS011;47773;53.174;6.614;2022-08-07T17:46:49;5.75;;;2.72;;
61840;SDS011;47773;53.174;6.614;2022-08-07T17:52:36;9.75;;;2.40;;
61840;SDS011;47773;53.174;6.614;2022-08-07T17:55:14;6.15;;;2.67;;
61840;SDS011;47773;53.174;6.614;2022-08-07T18:00:20;8.32;;;2.25;;
61840;SDS011;47773;53.174;6.614;2022-08-07T18:08:09;5.80;;;2.50;;
61840;SDS011;47773;53.174;6.614;2022-08-07T18:13:54;5.82;;;1.95;;
61840;SDS011;47773;53.174;6.614;2022-08-07T18:18:51;4.82;;;1.73;;
61840;SDS011;47773;53.174;6.614;2022-08-07T18:21:25;4.13;;;1.77;;
61840;SDS011;47773;53.174;6.614;2022-08-07T18:24:00;6.07;;;2.00;;
61840;SDS011;47773;53.174;6.614;2022-08-07T18:32:20;4.72;;;1.90;;
61840;SDS011;47773;53.174;6.614;2022-08-07T18:35:16;6.87;;;1.90;;
61840;SDS011;47773;53.174;6.614;2022-08-07T18:38:16;6.05;;;1.88;;
61840;SDS011;47773;53.174;6.614;2022-08-07T18:51:49;4.47;;;1.60;;
61840;SDS011;47773;53.174;6.614;2022-08-07T18:54:25;7.32;;;1.90;;
61840;SDS011;47773;53.174;6.614;2022-08-07T18:57:20;4.50;;;1.45;;
61840;SDS011;47773;53.174;6.614;2022-08-07T19:00:10;3.83;;;1.55;;
61840;SDS011;47773;53.174;6.614;2022-08-07T19:10:42;6.68;;;1.50;;
61840;SDS011;47773;53.174;6.614;2022-08-07T19:13:17;6.90;;;1.65;;
61840;SDS011;47773;53.174;6.614;2022-08-07T19:19:31;5.85;;;1.40;;
61840;SDS011;47773;53.174;6.614;2022-08-07T19:21:31;6.32;;;1.20;;
61840;SDS011;47773;53.174;6.614;2022-08-07T19:24:05;9.35;;;1.58;;
61840;SDS011;47773;53.174;6.614;2022-08-07T19:26:43;2.83;;;1.30;;
61840;SDS011;47773;53.174;6.614;2022-08-07T19:29:13;4.18;;;1.40;;